sensor_id;sensor_type;location;lat;lon;timestamp;pressure;altitude;pressure_sealevel;temperature;humidity
21449;BME280;10885;52.830;13.788;2022-08-25T01:37:01;101676.34;;;18.79;72.65
21449;BME280;10885;52.830;13.788;2022-08-25T01:47:10;101677.44;;;18.84;71.76
21449;BME280;10885;52.830;13.788;2022-08-25T01:52:37;101681.78;;;18.85;71.64
21449;BME280;10885;52.830;13.788;2022-08-25T01:57:46;101677.84;;;18.95;71.33
21449;BME280;10885;52.830;13.788;2022-08-25T05:18:38;101645.91;;;19.65;73.86
21449;BME280;10885;52.830;13.788;2022-08-25T05:23:41;101654.63;;;19.67;73.53
21449;BME280;10885;52.830;13.788;2022-08-25T05:28:43;101662.28;;;19.63;73.23
21449;BME280;10885;52.830;13.788;2022-08-25T05:33:46;101656.25;;;19.64;73.32
21449;BME280;10885;52.830;13.788;2022-08-25T05:38:49;101658.16;;;19.68;72.91
21449;BME280;10885;52.830;13.788;2022-08-25T05:43:51;101658.56;;;19.79;72.88
21449;BME280;10885;52.830;13.788;2022-08-25T05:48:53;101664.63;;;19.78;72.50
21449;BME280;10885;52.830;13.788;2022-08-25T05:53:56;101664.88;;;19.85;72.79
21449;BME280;10885;52.830;13.788;2022-08-25T05:58:58;101663.34;;;19.91;72.37
21449;BME280;10885;52.830;13.788;2022-08-25T06:04:00;101668.88;;;20.00;72.28
21449;BME280;10885;52.830;13.788;2022-08-25T06:09:03;101670.81;;;20.05;72.25
21449;BME280;10885;52.830;13.788;2022-08-25T06:14:08;101671.06;;;20.13;72.21
21449;BME280;10885;52.830;13.788;2022-08-25T06:19:10;101669.03;;;20.29;71.88
21449;BME280;10885;52.830;13.788;2022-08-25T06:24:13;101659.94;;;20.41;71.78
21449;BME280;10885;52.830;13.788;2022-08-25T06:29:16;101663.81;;;20.54;71.73
21449;BME280;10885;52.830;13.788;2022-08-25T06:34:20;101659.00;;;20.65;71.16
21449;BME280;10885;52.830;13.788;2022-08-25T06:39:25;101653.75;;;20.63;71.34
21449;BME280;10885;52.830;13.788;2022-08-25T06:44:27;101660.84;;;20.68;71.32
21449;BME280;10885;52.830;13.788;2022-08-25T06:49:30;101660.97;;;20.72;71.10
21449;BME280;10885;52.830;13.788;2022-08-25T06:54:37;101662.06;;;20.79;70.95
21449;BME280;10885;52.830;13.788;2022-08-25T06:59:40;101664.78;;;20.82;71.06
21449;BME280;10885;52.830;13.788;2022-08-25T07:04:42;101666.75;;;20.89;70.89
21449;BME280;10885;52.830;13.788;2022-08-25T07:09:45;101661.75;;;20.97;70.75
21449;BME280;10885;52.830;13.788;2022-08-25T07:14:47;101663.88;;;21.09;70.85
21449;BME280;10885;52.830;13.788;2022-08-25T07:20:09;101664.50;;;21.29;70.80
21449;BME280;10885;52.830;13.788;2022-08-25T07:25:15;101664.59;;;21.32;70.69
21449;BME280;10885;52.830;13.788;2022-08-25T07:30:19;101670.06;;;21.39;70.39
21449;BME280;10885;52.830;13.788;2022-08-25T07:35:22;101657.94;;;21.41;70.02
21449;BME280;10885;52.830;13.788;2022-08-25T07:40:38;101656.22;;;21.42;70.29
21449;BME280;10885;52.830;13.788;2022-08-25T07:45:44;101655.91;;;21.60;70.07
21449;BME280;10885;52.830;13.788;2022-08-25T07:50:50;101656.81;;;21.62;69.91
21449;BME280;10885;52.830;13.788;2022-08-25T07:55:53;101644.94;;;21.72;69.64
21449;BME280;10885;52.830;13.788;2022-08-25T08:00:55;101642.44;;;22.07;69.29
21449;BME280;10885;52.830;13.788;2022-08-25T08:05:57;101649.56;;;23.17;68.79
21449;BME280;10885;52.830;13.788;2022-08-25T08:11:00;101645.09;;;23.52;67.04
21449;BME280;10885;52.830;13.788;2022-08-25T08:16:10;101656.44;;;23.13;66.60
21449;BME280;10885;52.830;13.788;2022-08-25T08:21:34;101650.63;;;22.89;67.19
21449;BME280;10885;52.830;13.788;2022-08-25T08:26:37;101644.47;;;23.23;67.20
21449;BME280;10885;52.830;13.788;2022-08-25T08:31:59;101645.34;;;23.23;66.71
21449;BME280;10885;52.830;13.788;2022-08-25T08:37:02;101645.19;;;23.16;66.60
21449;BME280;10885;52.830;13.788;2022-08-25T08:54:17;101628.66;;;23.58;66.10
21449;BME280;10885;52.830;13.788;2022-08-25T08:59:25;101622.00;;;23.75;65.65
21449;BME280;10885;52.830;13.788;2022-08-25T09:04:35;101627.41;;;24.79;64.69
21449;BME280;10885;52.830;13.788;2022-08-25T09:09:41;101624.91;;;24.88;63.67
21449;BME280;10885;52.830;13.788;2022-08-25T09:14:54;101626.13;;;25.13;63.49
21449;BME280;10885;52.830;13.788;2022-08-25T09:25:26;101611.88;;;28.85;56.52
21449;BME280;10885;52.830;13.788;2022-08-25T09:31:12;101621.25;;;32.25;50.61
21449;BME280;10885;52.830;13.788;2022-08-25T09:36:18;101617.53;;;32.86;50.66
21449;BME280;10885;52.830;13.788;2022-08-25T09:41:56;101622.13;;;29.70;52.94
21449;BME280;10885;52.830;13.788;2022-08-25T09:47:23;101601.09;;;29.53;53.50
21449;BME280;10885;52.830;13.788;2022-08-25T09:57:55;101590.34;;;30.93;52.49
21449;BME280;10885;52.830;13.788;2022-08-25T10:08:34;101585.47;;;34.19;46.06
21449;BME280;10885;52.830;13.788;2022-08-25T10:14:05;101584.00;;;31.10;49.46
21449;BME280;10885;52.830;13.788;2022-08-25T10:24:12;101565.66;;;30.91;51.29
21449;BME280;10885;52.830;13.788;2022-08-25T10:45:20;101573.78;;;35.51;41.50
21449;BME280;10885;52.830;13.788;2022-08-25T10:50:42;101566.63;;;33.52;45.16
21449;BME280;10885;52.830;13.788;2022-08-25T10:56:02;101555.66;;;33.68;46.03
21449;BME280;10885;52.830;13.788;2022-08-25T11:01:33;101552.91;;;36.20;42.51
21449;BME280;10885;52.830;13.788;2022-08-25T11:06:58;101545.41;;;36.82;41.11
21449;BME280;10885;52.830;13.788;2022-08-25T11:12:06;101537.59;;;43.15;33.91
21449;BME280;10885;52.830;13.788;2022-08-25T11:17:21;101532.97;;;45.49;26.97
21449;BME280;10885;52.830;13.788;2022-08-25T11:27:54;101520.13;;;38.03;34.56
21449;BME280;10885;52.830;13.788;2022-08-25T11:32:58;101524.94;;;38.56;39.62
21449;BME280;10885;52.830;13.788;2022-08-25T11:54:13;101516.53;;;44.27;28.58
21449;BME280;10885;52.830;13.788;2022-08-25T12:04:50;101503.16;;;39.03;35.70
21449;BME280;10885;52.830;13.788;2022-08-25T12:25:57;101472.25;;;37.52;37.04
21449;BME280;10885;52.830;13.788;2022-08-25T12:31:30;101466.22;;;37.27;37.33
21449;BME280;10885;52.830;13.788;2022-08-25T12:36:37;101460.19;;;36.98;37.75
21449;BME280;10885;52.830;13.788;2022-08-25T12:41:52;101447.34;;;37.08;34.58
21449;BME280;10885;52.830;13.788;2022-08-25T12:47:29;101451.66;;;37.10;35.70
21449;BME280;10885;52.830;13.788;2022-08-25T12:52:36;101448.16;;;35.89;39.00
21449;BME280;10885;52.830;13.788;2022-08-25T12:57:45;101434.97;;;35.31;38.10
21449;BME280;10885;52.830;13.788;2022-08-25T13:18:37;101414.06;;;34.89;36.65
21449;BME280;10885;52.830;13.788;2022-08-25T13:23:43;101407.66;;;35.24;40.85
21449;BME280;10885;52.830;13.788;2022-08-25T13:29:15;101407.38;;;35.03;39.33
21449;BME280;10885;52.830;13.788;2022-08-25T13:34:23;101407.53;;;33.74;42.76
21449;BME280;10885;52.830;13.788;2022-08-25T13:39:37;101401.22;;;32.20;45.00
21449;BME280;10885;52.830;13.788;2022-08-25T13:44:57;101392.69;;;32.48;45.31
21449;BME280;10885;52.830;13.788;2022-08-25T13:50:20;101387.56;;;33.21;40.82
21449;BME280;10885;52.830;13.788;2022-08-25T13:55:48;101386.03;;;31.80;42.22
21449;BME280;10885;52.830;13.788;2022-08-25T14:06:33;101370.63;;;33.25;44.35
21449;BME280;10885;52.830;13.788;2022-08-25T14:11:56;101366.38;;;33.18;42.65
21449;BME280;10885;52.830;13.788;2022-08-25T14:17:05;101367.31;;;31.89;45.41
21449;BME280;10885;52.830;13.788;2022-08-25T14:22:28;101366.03;;;31.06;46.87
21449;BME280;10885;52.830;13.788;2022-08-25T14:27:31;101364.53;;;30.90;47.43
21449;BME280;10885;52.830;13.788;2022-08-25T14:32:42;101343.75;;;31.73;46.74
21449;BME280;10885;52.830;13.788;2022-08-25T14:37:45;101333.47;;;32.04;45.59
21449;BME280;10885;52.830;13.788;2022-08-25T14:42:48;101323.22;;;32.29;45.46
21449;BME280;10885;52.830;13.788;2022-08-25T14:47:51;101320.47;;;32.35;45.28
21449;BME280;10885;52.830;13.788;2022-08-25T14:52:54;101318.59;;;32.39;44.86
21449;BME280;10885;52.830;13.788;2022-08-25T14:58:00;101311.13;;;32.16;45.11
21449;BME280;10885;52.830;13.788;2022-08-25T15:03:03;101301.50;;;32.12;45.53
21449;BME280;10885;52.830;13.788;2022-08-25T15:08:06;101296.47;;;31.96;45.52
21449;BME280;10885;52.830;13.788;2022-08-25T15:13:33;101294.31;;;31.71;46.12
21449;BME280;10885;52.830;13.788;2022-08-25T15:18:36;101290.31;;;31.47;46.34
21449;BME280;10885;52.830;13.788;2022-08-25T15:23:38;101296.59;;;30.89;47.46
21449;BME280;10885;52.830;13.788;2022-08-25T15:28:47;101296.88;;;30.69;47.94
21449;BME280;10885;52.830;13.788;2022-08-25T15:33:50;101293.78;;;30.38;48.10
21449;BME280;10885;52.830;13.788;2022-08-25T15:38:53;101287.66;;;30.34;48.67
21449;BME280;10885;52.830;13.788;2022-08-25T15:43:56;101276.50;;;30.10;49.21
21449;BME280;10885;52.830;13.788;2022-08-25T15:48:59;101276.34;;;30.20;48.86
21449;BME280;10885;52.830;13.788;2022-08-25T15:54:01;101274.78;;;30.05;49.01
21449;BME280;10885;52.830;13.788;2022-08-25T15:59:05;101273.59;;;29.50;49.31
21449;BME280;10885;52.830;13.788;2022-08-25T16:04:10;101254.72;;;28.97;50.54
21449;BME280;10885;52.830;13.788;2022-08-25T16:09:13;101252.38;;;28.52;51.18
21449;BME280;10885;52.830;13.788;2022-08-25T16:14:15;101236.56;;;28.45;51.62
21449;BME280;10885;52.830;13.788;2022-08-25T16:19:18;101231.13;;;28.72;51.65
21449;BME280;10885;52.830;13.788;2022-08-25T16:24:20;101233.75;;;28.77;51.25
21449;BME280;10885;52.830;13.788;2022-08-25T16:29:22;101234.63;;;28.76;50.86
21449;BME280;10885;52.830;13.788;2022-08-25T16:34:25;101229.47;;;28.64;51.30
21449;BME280;10885;52.830;13.788;2022-08-25T16:39:31;101219.88;;;28.53;51.41
21449;BME280;10885;52.830;13.788;2022-08-25T16:44:34;101228.69;;;28.40;52.03
21449;BME280;10885;52.830;13.788;2022-08-25T16:49:36;101220.00;;;28.26;51.82
21449;BME280;10885;52.830;13.788;2022-08-25T16:54:39;101216.56;;;28.08;52.12
21449;BME280;10885;52.830;13.788;2022-08-25T17:00:00;101214.91;;;27.87;52.38
21449;BME280;10885;52.830;13.788;2022-08-25T17:05:03;101206.19;;;27.68;53.10
21449;BME280;10885;52.830;13.788;2022-08-25T17:10:07;101201.84;;;27.49;53.26
21449;BME280;10885;52.830;13.788;2022-08-25T17:15:13;101203.66;;;27.30;53.55
21449;BME280;10885;52.830;13.788;2022-08-25T17:20:22;101204.53;;;27.10;53.92
21449;BME280;10885;52.830;13.788;2022-08-25T17:25:28;101205.41;;;26.91;54.23
21449;BME280;10885;52.830;13.788;2022-08-25T17:30:31;101210.66;;;26.74;54.61
21449;BME280;10885;52.830;13.788;2022-08-25T17:35:43;101211.53;;;26.61;54.74
21449;BME280;10885;52.830;13.788;2022-08-25T17:40:46;101203.56;;;26.44;55.18
21449;BME280;10885;52.830;13.788;2022-08-25T17:45:50;101209.66;;;26.24;55.29
21449;BME280;10885;52.830;13.788;2022-08-25T17:50:54;101200.00;;;26.09;55.81
21449;BME280;10885;52.830;13.788;2022-08-25T17:56:02;101212.22;;;25.95;56.16
21449;BME280;10885;52.830;13.788;2022-08-25T18:01:06;101212.09;;;25.79;56.02
21449;BME280;10885;52.830;13.788;2022-08-25T18:06:10;101208.56;;;25.67;56.39
21449;BME280;10885;52.830;13.788;2022-08-25T18:11:16;101215.47;;;25.51;56.67
21449;BME280;10885;52.830;13.788;2022-08-25T18:16:19;101215.41;;;25.43;56.76
21449;BME280;10885;52.830;13.788;2022-08-25T18:21:23;101217.06;;;25.29;57.11
21449;BME280;10885;52.830;13.788;2022-08-25T18:26:32;101223.00;;;25.08;57.77
21449;BME280;10885;52.830;13.788;2022-08-25T18:31:34;101223.66;;;24.82;58.15
21449;BME280;10885;52.830;13.788;2022-08-25T18:36:37;101230.44;;;24.60;58.49
21449;BME280;10885;52.830;13.788;2022-08-25T18:41:41;101229.31;;;24.41;59.05
21449;BME280;10885;52.830;13.788;2022-08-25T18:46:46;101226.56;;;24.26;59.79
21449;BME280;10885;52.830;13.788;2022-08-25T18:51:49;101231.63;;;24.12;59.56
21449;BME280;10885;52.830;13.788;2022-08-25T18:56:52;101233.13;;;23.93;60.03
21449;BME280;10885;52.830;13.788;2022-08-25T19:01:54;101234.81;;;23.88;59.90
21449;BME280;10885;52.830;13.788;2022-08-25T19:06:59;101225.91;;;23.76;60.40
21449;BME280;10885;52.830;13.788;2022-08-25T19:12:02;101234.47;;;23.65;60.65
21449;BME280;10885;52.830;13.788;2022-08-25T19:17:04;101241.09;;;23.41;60.86
21449;BME280;10885;52.830;13.788;2022-08-25T19:22:06;101246.22;;;23.33;61.29
21449;BME280;10885;52.830;13.788;2022-08-25T19:27:30;101243.19;;;23.07;61.59
21449;BME280;10885;52.830;13.788;2022-08-25T19:32:35;101248.28;;;23.01;62.11
21449;BME280;10885;52.830;13.788;2022-08-25T19:37:42;101249.97;;;22.97;62.15
21449;BME280;10885;52.830;13.788;2022-08-25T19:42:46;101243.66;;;22.84;62.32
21449;BME280;10885;52.830;13.788;2022-08-25T19:47:55;101245.41;;;22.84;62.55
21449;BME280;10885;52.830;13.788;2022-08-25T19:52:58;101236.47;;;22.73;62.99
21449;BME280;10885;52.830;13.788;2022-08-25T19:58:02;101242.50;;;22.69;62.94
